sensor_id;sensor_type;location;lat;lon;timestamp;temperature;humidity
3842;DHT22;1936;47.074;15.336;2023-08-01T00:00:29;18.90;95.00
3842;DHT22;1936;47.074;15.336;2023-08-01T00:02:34;18.80;94.90
3842;DHT22;1936;47.074;15.336;2023-08-01T00:04:38;18.80;95.00
3842;DHT22;1936;47.074;15.336;2023-08-01T00:06:41;18.70;95.30
3842;DHT22;1936;47.074;15.336;2023-08-01T00:08:45;18.70;95.20
3842;DHT22;1936;47.074;15.336;2023-08-01T00:10:49;18.80;95.10
3842;DHT22;1936;47.074;15.336;2023-08-01T00:12:52;18.70;95.10
3842;DHT22;1936;47.074;15.336;2023-08-01T00:14:56;18.70;95.00
3842;DHT22;1936;47.074;15.336;2023-08-01T00:16:59;18.70;95.00
3842;DHT22;1936;47.074;15.336;2023-08-01T00:19:04;18.70;95.00
3842;DHT22;1936;47.074;15.336;2023-08-01T00:21:07;18.70;94.90
3842;DHT22;1936;47.074;15.336;2023-08-01T00:23:12;18.80;94.80
3842;DHT22;1936;47.074;15.336;2023-08-01T00:25:14;18.70;94.90
3842;DHT22;1936;47.074;15.336;2023-08-01T00:27:18;18.60;95.00
3842;DHT22;1936;47.074;15.336;2023-08-01T00:29:21;18.60;95.10
3842;DHT22;1936;47.074;15.336;2023-08-01T00:31:25;18.60;95.10
3842;DHT22;1936;47.074;15.336;2023-08-01T00:33:28;18.70;95.20
3842;DHT22;1936;47.074;15.336;2023-08-01T00:35:33;18.60;95.40
3842;DHT22;1936;47.074;15.336;2023-08-01T00:37:37;18.70;95.50
3842;DHT22;1936;47.074;15.336;2023-08-01T00:39:41;18.70;96.00
3842;DHT22;1936;47.074;15.336;2023-08-01T00:41:44;18.50;96.40
3842;DHT22;1936;47.074;15.336;2023-08-01T00:43:48;18.60;96.10
3842;DHT22;1936;47.074;15.336;2023-08-01T00:45:52;18.60;95.90
3842;DHT22;1936;47.074;15.336;2023-08-01T00:47:58;18.50;96.10
3842;DHT22;1936;47.074;15.336;2023-08-01T00:50:03;18.60;96.10
3842;DHT22;1936;47.074;15.336;2023-08-01T00:52:08;18.50;96.10
3842;DHT22;1936;47.074;15.336;2023-08-01T00:54:12;18.50;96.20
3842;DHT22;1936;47.074;15.336;2023-08-01T00:56:16;18.50;96.20
3842;DHT22;1936;47.074;15.336;2023-08-01T00:58:19;18.50;96.20
3842;DHT22;1936;47.074;15.336;2023-08-01T01:00:23;18.60;96.10
3842;DHT22;1936;47.074;15.336;2023-08-01T01:02:27;18.40;96.10
3842;DHT22;1936;47.074;15.336;2023-08-01T01:04:30;18.40;95.90
3842;DHT22;1936;47.074;15.336;2023-08-01T01:06:39;18.40;96.10
3842;DHT22;1936;47.074;15.336;2023-08-01T01:08:46;18.40;95.80
3842;DHT22;1936;47.074;15.336;2023-08-01T01:10:49;18.50;95.60
3842;DHT22;1936;47.074;15.336;2023-08-01T01:12:52;18.50;95.50
3842;DHT22;1936;47.074;15.336;2023-08-01T01:14:57;18.50;95.60
3842;DHT22;1936;47.074;15.336;2023-08-01T01:17:00;18.40;95.60
3842;DHT22;1936;47.074;15.336;2023-08-01T01:19:06;18.40;95.70
3842;DHT22;1936;47.074;15.336;2023-08-01T01:22:00;18.50;95.30
3842;DHT22;1936;47.074;15.336;2023-08-01T01:24:05;18.50;95.30
3842;DHT22;1936;47.074;15.336;2023-08-01T01:26:10;18.40;95.60
3842;DHT22;1936;47.074;15.336;2023-08-01T01:28:15;18.30;95.70
3842;DHT22;1936;47.074;15.336;2023-08-01T01:30:19;18.40;95.60
3842;DHT22;1936;47.074;15.336;2023-08-01T01:32:23;18.30;95.70
3842;DHT22;1936;47.074;15.336;2023-08-01T01:34:27;18.20;96.00
3842;DHT22;1936;47.074;15.336;2023-08-01T01:36:31;18.20;96.00
3842;DHT22;1936;47.074;15.336;2023-08-01T01:38:35;18.30;95.60
3842;DHT22;1936;47.074;15.336;2023-08-01T01:40:38;18.30;95.40
3842;DHT22;1936;47.074;15.336;2023-08-01T01:42:42;18.10;95.90
3842;DHT22;1936;47.074;15.336;2023-08-01T01:44:45;18.10;96.10
3842;DHT22;1936;47.074;15.336;2023-08-01T01:46:49;18.10;95.90
3842;DHT22;1936;47.074;15.336;2023-08-01T01:48:52;18.10;95.90
3842;DHT22;1936;47.074;15.336;2023-08-01T01:50:56;18.10;96.00
3842;DHT22;1936;47.074;15.336;2023-08-01T01:52:59;18.00;96.10
3842;DHT22;1936;47.074;15.336;2023-08-01T01:55:05;18.10;96.00
3842;DHT22;1936;47.074;15.336;2023-08-01T01:57:09;18.00;95.80
3842;DHT22;1936;47.074;15.336;2023-08-01T01:59:12;17.90;96.50
3842;DHT22;1936;47.074;15.336;2023-08-01T02:01:16;17.90;96.60
3842;DHT22;1936;47.074;15.336;2023-08-01T02:03:19;17.90;96.40
3842;DHT22;1936;47.074;15.336;2023-08-01T02:05:22;18.00;96.00
3842;DHT22;1936;47.074;15.336;2023-08-01T02:07:26;17.90;96.20
3842;DHT22;1936;47.074;15.336;2023-08-01T02:09:29;17.80;96.40
3842;DHT22;1936;47.074;15.336;2023-08-01T02:11:34;17.80;96.40
3842;DHT22;1936;47.074;15.336;2023-08-01T02:13:38;17.90;96.10
3842;DHT22;1936;47.074;15.336;2023-08-01T02:15:41;18.00;95.70
3842;DHT22;1936;47.074;15.336;2023-08-01T02:17:44;18.00;95.80
3842;DHT22;1936;47.074;15.336;2023-08-01T02:19:48;18.20;95.40
3842;DHT22;1936;47.074;15.336;2023-08-01T02:21:50;18.10;95.40
3842;DHT22;1936;47.074;15.336;2023-08-01T02:23:54;18.00;95.80
3842;DHT22;1936;47.074;15.336;2023-08-01T02:25:57;18.00;96.40
3842;DHT22;1936;47.074;15.336;2023-08-01T02:28:02;17.80;97.30
3842;DHT22;1936;47.074;15.336;2023-08-01T02:30:06;17.80;97.10
3842;DHT22;1936;47.074;15.336;2023-08-01T02:32:10;17.80;96.90
3842;DHT22;1936;47.074;15.336;2023-08-01T02:34:14;17.80;97.00
3842;DHT22;1936;47.074;15.336;2023-08-01T02:36:17;17.70;96.80
3842;DHT22;1936;47.074;15.336;2023-08-01T02:38:20;17.70;96.90
3842;DHT22;1936;47.074;15.336;2023-08-01T02:40:24;17.70;96.70
3842;DHT22;1936;47.074;15.336;2023-08-01T02:42:28;17.70;96.80
3842;DHT22;1936;47.074;15.336;2023-08-01T02:44:33;17.80;96.40
3842;DHT22;1936;47.074;15.336;2023-08-01T02:46:37;17.80;96.30
3842;DHT22;1936;47.074;15.336;2023-08-01T02:48:41;17.70;96.60
3842;DHT22;1936;47.074;15.336;2023-08-01T02:50:45;17.60;96.70
3842;DHT22;1936;47.074;15.336;2023-08-01T02:52:47;17.60;97.10
3842;DHT22;1936;47.074;15.336;2023-08-01T02:54:51;17.70;96.90
3842;DHT22;1936;47.074;15.336;2023-08-01T02:56:54;17.70;96.50
3842;DHT22;1936;47.074;15.336;2023-08-01T02:58:58;17.70;96.40
3842;DHT22;1936;47.074;15.336;2023-08-01T03:01:06;17.80;96.30
3842;DHT22;1936;47.074;15.336;2023-08-01T03:03:11;17.70;96.50
3842;DHT22;1936;47.074;15.336;2023-08-01T03:05:15;17.80;96.30
3842;DHT22;1936;47.074;15.336;2023-08-01T03:07:19;17.80;96.00
3842;DHT22;1936;47.074;15.336;2023-08-01T03:09:22;17.90;95.80
3842;DHT22;1936;47.074;15.336;2023-08-01T03:11:26;17.80;95.90
3842;DHT22;1936;47.074;15.336;2023-08-01T03:13:29;17.80;95.80
3842;DHT22;1936;47.074;15.336;2023-08-01T03:15:33;17.70;96.00
3842;DHT22;1936;47.074;15.336;2023-08-01T03:17:38;17.70;96.20
3842;DHT22;1936;47.074;15.336;2023-08-01T03:19:41;17.60;96.40
3842;DHT22;1936;47.074;15.336;2023-08-01T03:21:45;17.50;96.40
3842;DHT22;1936;47.074;15.336;2023-08-01T03:23:48;17.50;96.70
3842;DHT22;1936;47.074;15.336;2023-08-01T03:25:52;17.40;97.00
3842;DHT22;1936;47.074;15.336;2023-08-01T03:27:54;17.50;96.80
3842;DHT22;1936;47.074;15.336;2023-08-01T03:29:58;17.70;96.30
3842;DHT22;1936;47.074;15.336;2023-08-01T03:32:01;17.80;95.90
3842;DHT22;1936;47.074;15.336;2023-08-01T03:34:06;17.70;96.00
3842;DHT22;1936;47.074;15.336;2023-08-01T03:36:11;17.70;95.90
3842;DHT22;1936;47.074;15.336;2023-08-01T03:38:14;17.60;96.30
3842;DHT22;1936;47.074;15.336;2023-08-01T03:40:18;17.50;96.30
3842;DHT22;1936;47.074;15.336;2023-08-01T03:42:21;17.60;96.10
3842;DHT22;1936;47.074;15.336;2023-08-01T03:44:25;17.60;95.90
3842;DHT22;1936;47.074;15.336;2023-08-01T03:46:27;17.70;95.80
3842;DHT22;1936;47.074;15.336;2023-08-01T03:48:30;17.60;96.00
3842;DHT22;1936;47.074;15.336;2023-08-01T03:50:35;17.60;96.10
3842;DHT22;1936;47.074;15.336;2023-08-01T03:52:39;17.60;96.40
3842;DHT22;1936;47.074;15.336;2023-08-01T03:54:42;17.70;96.20
3842;DHT22;1936;47.074;15.336;2023-08-01T03:56:46;17.60;96.30
3842;DHT22;1936;47.074;15.336;2023-08-01T03:58:49;17.50;96.60
3842;DHT22;1936;47.074;15.336;2023-08-01T04:00:53;17.60;96.50
3842;DHT22;1936;47.074;15.336;2023-08-01T04:02:56;17.60;96.40
3842;DHT22;1936;47.074;15.336;2023-08-01T04:05:00;17.60;96.40
3842;DHT22;1936;47.074;15.336;2023-08-01T04:07:04;17.60;96.30
3842;DHT22;1936;47.074;15.336;2023-08-01T04:09:07;17.50;96.50
3842;DHT22;1936;47.074;15.336;2023-08-01T04:11:10;17.60;96.30
3842;DHT22;1936;47.074;15.336;2023-08-01T04:13:14;17.40;96.60
3842;DHT22;1936;47.074;15.336;2023-08-01T04:15:17;17.40;96.90
3842;DHT22;1936;47.074;15.336;2023-08-01T04:17:21;17.70;96.20
3842;DHT22;1936;47.074;15.336;2023-08-01T04:19:24;17.70;96.40
3842;DHT22;1936;47.074;15.336;2023-08-01T04:21:27;17.90;96.10
3842;DHT22;1936;47.074;15.336;2023-08-01T04:23:32;17.90;96.00
3842;DHT22;1936;47.074;15.336;2023-08-01T04:25:36;17.90;96.10
3842;DHT22;1936;47.074;15.336;2023-08-01T04:27:39;17.90;96.50
3842;DHT22;1936;47.074;15.336;2023-08-01T04:29:42;17.60;96.90
3842;DHT22;1936;47.074;15.336;2023-08-01T04:31:46;17.70;97.30
3842;DHT22;1936;47.074;15.336;2023-08-01T04:33:49;17.80;97.00
3842;DHT22;1936;47.074;15.336;2023-08-01T04:35:53;18.10;96.70
3842;DHT22;1936;47.074;15.336;2023-08-01T04:37:56;18.10;96.50
3842;DHT22;1936;47.074;15.336;2023-08-01T04:40:01;18.00;96.90
3842;DHT22;1936;47.074;15.336;2023-08-01T04:42:05;18.20;96.90
3842;DHT22;1936;47.074;15.336;2023-08-01T04:44:09;18.40;96.70
3842;DHT22;1936;47.074;15.336;2023-08-01T04:46:12;18.70;96.10
3842;DHT22;1936;47.074;15.336;2023-08-01T04:48:16;19.00;95.90
3842;DHT22;1936;47.074;15.336;2023-08-01T04:50:18;19.20;95.80
3842;DHT22;1936;47.074;15.336;2023-08-01T04:52:22;19.40;95.60
3842;DHT22;1936;47.074;15.336;2023-08-01T04:54:25;19.70;95.00
3842;DHT22;1936;47.074;15.336;2023-08-01T04:56:30;19.90;94.60
3842;DHT22;1936;47.074;15.336;2023-08-01T04:58:34;20.00;94.40
3842;DHT22;1936;47.074;15.336;2023-08-01T05:00:37;20.10;94.30
3842;DHT22;1936;47.074;15.336;2023-08-01T05:02:41;20.20;94.40
3842;DHT22;1936;47.074;15.336;2023-08-01T05:04:43;20.40;94.20
3842;DHT22;1936;47.074;15.336;2023-08-01T05:06:47;20.50;94.00
3842;DHT22;1936;47.074;15.336;2023-08-01T05:08:50;20.20;93.80
3842;DHT22;1936;47.074;15.336;2023-08-01T05:10:54;20.00;93.80
3842;DHT22;1936;47.074;15.336;2023-08-01T05:12:58;20.20;94.10
3842;DHT22;1936;47.074;15.336;2023-08-01T05:15:01;20.50;93.70
3842;DHT22;1936;47.074;15.336;2023-08-01T05:17:05;20.70;93.30
3842;DHT22;1936;47.074;15.336;2023-08-01T05:19:09;20.80;93.40
3842;DHT22;1936;47.074;15.336;2023-08-01T05:21:12;20.80;93.10
3842;DHT22;1936;47.074;15.336;2023-08-01T05:23:16;21.00;93.10
3842;DHT22;1936;47.074;15.336;2023-08-01T05:25:19;21.10;92.90
3842;DHT22;1936;47.074;15.336;2023-08-01T05:27:23;21.20;92.50
3842;DHT22;1936;47.074;15.336;2023-08-01T05:29:28;21.30;92.50
3842;DHT22;1936;47.074;15.336;2023-08-01T05:31:32;21.50;92.00
3842;DHT22;1936;47.074;15.336;2023-08-01T05:33:35;21.40;92.00
3842;DHT22;1936;47.074;15.336;2023-08-01T05:35:39;21.60;92.10
3842;DHT22;1936;47.074;15.336;2023-08-01T05:37:42;21.40;91.80
3842;DHT22;1936;47.074;15.336;2023-08-01T05:39:46;21.60;91.80
3842;DHT22;1936;47.074;15.336;2023-08-01T05:41:49;21.60;92.30
3842;DHT22;1936;47.074;15.336;2023-08-01T05:43:53;21.60;92.30
3842;DHT22;1936;47.074;15.336;2023-08-01T05:45:58;22.00;92.20
3842;DHT22;1936;47.074;15.336;2023-08-01T05:48:01;22.20;91.80
3842;DHT22;1936;47.074;15.336;2023-08-01T05:50:05;22.30;90.90
3842;DHT22;1936;47.074;15.336;2023-08-01T05:52:08;22.50;90.60
3842;DHT22;1936;47.074;15.336;2023-08-01T05:54:12;22.80;90.50
3842;DHT22;1936;47.074;15.336;2023-08-01T05:56:15;23.00;89.80
3842;DHT22;1936;47.074;15.336;2023-08-01T05:58:19;23.20;88.60
3842;DHT22;1936;47.074;15.336;2023-08-01T06:00:23;23.30;88.10
3842;DHT22;1936;47.074;15.336;2023-08-01T06:02:27;23.20;88.50
3842;DHT22;1936;47.074;15.336;2023-08-01T06:04:31;23.30;87.90
3842;DHT22;1936;47.074;15.336;2023-08-01T06:06:35;23.40;88.40
3842;DHT22;1936;47.074;15.336;2023-08-01T06:08:39;23.50;88.50
3842;DHT22;1936;47.074;15.336;2023-08-01T06:10:42;23.50;87.70
3842;DHT22;1936;47.074;15.336;2023-08-01T06:12:46;23.50;88.20
3842;DHT22;1936;47.074;15.336;2023-08-01T06:14:49;23.40;89.30
3842;DHT22;1936;47.074;15.336;2023-08-01T06:16:53;23.50;88.30
3842;DHT22;1936;47.074;15.336;2023-08-01T06:18:58;23.80;86.30
3842;DHT22;1936;47.074;15.336;2023-08-01T06:21:03;24.30;85.30
3842;DHT22;1936;47.074;15.336;2023-08-01T06:23:06;24.80;82.90
3842;DHT22;1936;47.074;15.336;2023-08-01T06:25:09;24.90;82.60
3842;DHT22;1936;47.074;15.336;2023-08-01T06:27:12;24.90;82.70
3842;DHT22;1936;47.074;15.336;2023-08-01T06:29:17;25.80;81.20
3842;DHT22;1936;47.074;15.336;2023-08-01T06:31:20;26.60;78.60
3842;DHT22;1936;47.074;15.336;2023-08-01T06:33:24;27.10;75.30
3842;DHT22;1936;47.074;15.336;2023-08-01T06:35:29;27.40;71.20
3842;DHT22;1936;47.074;15.336;2023-08-01T06:37:33;28.00;70.00
3842;DHT22;1936;47.074;15.336;2023-08-01T06:39:36;27.90;66.80
3842;DHT22;1936;47.074;15.336;2023-08-01T06:41:39;27.40;70.60
3842;DHT22;1936;47.074;15.336;2023-08-01T06:43:43;27.30;68.40
3842;DHT22;1936;47.074;15.336;2023-08-01T06:45:46;26.80;71.40
3842;DHT22;1936;47.074;15.336;2023-08-01T06:47:49;26.50;71.40
3842;DHT22;1936;47.074;15.336;2023-08-01T06:49:53;25.80;72.00
3842;DHT22;1936;47.074;15.336;2023-08-01T06:51:58;26.10;73.50
3842;DHT22;1936;47.074;15.336;2023-08-01T06:54:01;25.50;70.90
3842;DHT22;1936;47.074;15.336;2023-08-01T06:56:04;25.90;72.80
3842;DHT22;1936;47.074;15.336;2023-08-01T06:58:08;25.70;74.70
3842;DHT22;1936;47.074;15.336;2023-08-01T07:00:12;25.30;75.60
3842;DHT22;1936;47.074;15.336;2023-08-01T07:02:16;25.20;77.40
3842;DHT22;1936;47.074;15.336;2023-08-01T07:04:19;25.90;77.50
3842;DHT22;1936;47.074;15.336;2023-08-01T07:06:23;26.30;77.00
3842;DHT22;1936;47.074;15.336;2023-08-01T07:08:28;26.40;72.10
3842;DHT22;1936;47.074;15.336;2023-08-01T07:10:34;26.80;72.20
3842;DHT22;1936;47.074;15.336;2023-08-01T07:12:37;26.90;69.10
3842;DHT22;1936;47.074;15.336;2023-08-01T07:14:41;27.50;69.10
3842;DHT22;1936;47.074;15.336;2023-08-01T07:16:44;27.70;69.00
3842;DHT22;1936;47.074;15.336;2023-08-01T07:18:48;27.90;69.70
3842;DHT22;1936;47.074;15.336;2023-08-01T07:20:59;27.50;69.10
3842;DHT22;1936;47.074;15.336;2023-08-01T07:23:03;27.50;66.70
3842;DHT22;1936;47.074;15.336;2023-08-01T07:25:09;27.80;65.20
3842;DHT22;1936;47.074;15.336;2023-08-01T07:27:14;28.00;66.20
3842;DHT22;1936;47.074;15.336;2023-08-01T07:29:17;28.10;66.50
3842;DHT22;1936;47.074;15.336;2023-08-01T07:31:21;28.20;64.50
3842;DHT22;1936;47.074;15.336;2023-08-01T07:33:24;28.00;66.80
3842;DHT22;1936;47.074;15.336;2023-08-01T07:35:28;27.60;66.90
3842;DHT22;1936;47.074;15.336;2023-08-01T07:37:33;27.50;66.20
3842;DHT22;1936;47.074;15.336;2023-08-01T07:39:37;27.50;67.30
3842;DHT22;1936;47.074;15.336;2023-08-01T07:41:41;27.50;68.40
3842;DHT22;1936;47.074;15.336;2023-08-01T07:43:45;27.30;66.10
3842;DHT22;1936;47.074;15.336;2023-08-01T07:45:49;26.90;68.80
3842;DHT22;1936;47.074;15.336;2023-08-01T07:47:53;27.00;71.30
3842;DHT22;1936;47.074;15.336;2023-08-01T07:49:57;26.50;70.00
3842;DHT22;1936;47.074;15.336;2023-08-01T07:52:00;26.50;69.40
3842;DHT22;1936;47.074;15.336;2023-08-01T07:54:04;26.70;71.70
3842;DHT22;1936;47.074;15.336;2023-08-01T07:56:07;27.10;70.00
3842;DHT22;1936;47.074;15.336;2023-08-01T07:58:12;27.10;69.30
3842;DHT22;1936;47.074;15.336;2023-08-01T08:00:16;27.20;68.80
3842;DHT22;1936;47.074;15.336;2023-08-01T08:02:20;27.20;69.30
3842;DHT22;1936;47.074;15.336;2023-08-01T08:04:23;27.20;69.60
3842;DHT22;1936;47.074;15.336;2023-08-01T08:06:27;26.40;71.20
3842;DHT22;1936;47.074;15.336;2023-08-01T08:08:30;26.40;71.90
3842;DHT22;1936;47.074;15.336;2023-08-01T08:10:35;26.70;72.30
3842;DHT22;1936;47.074;15.336;2023-08-01T08:12:42;26.90;72.40
3842;DHT22;1936;47.074;15.336;2023-08-01T08:14:47;27.00;72.50
3842;DHT22;1936;47.074;15.336;2023-08-01T08:16:50;26.60;72.00
3842;DHT22;1936;47.074;15.336;2023-08-01T08:18:54;25.90;70.40
3842;DHT22;1936;47.074;15.336;2023-08-01T08:20:58;26.10;73.70
3842;DHT22;1936;47.074;15.336;2023-08-01T08:23:01;26.40;72.00
3842;DHT22;1936;47.074;15.336;2023-08-01T08:25:05;26.20;68.40
3842;DHT22;1936;47.074;15.336;2023-08-01T08:27:08;24.90;72.10
3842;DHT22;1936;47.074;15.336;2023-08-01T08:29:12;24.70;72.90
3842;DHT22;1936;47.074;15.336;2023-08-01T08:31:16;25.10;73.10
3842;DHT22;1936;47.074;15.336;2023-08-01T08:33:20;25.50;72.60
3842;DHT22;1936;47.074;15.336;2023-08-01T08:35:23;25.60;75.40
3842;DHT22;1936;47.074;15.336;2023-08-01T08:37:26;26.00;75.70
3842;DHT22;1936;47.074;15.336;2023-08-01T08:39:30;26.40;71.80
3842;DHT22;1936;47.074;15.336;2023-08-01T08:41:37;26.50;72.80
3842;DHT22;1936;47.074;15.336;2023-08-01T08:43:41;26.80;72.20
3842;DHT22;1936;47.074;15.336;2023-08-01T08:45:46;27.00;70.90
3842;DHT22;1936;47.074;15.336;2023-08-01T08:47:55;27.40;70.00
3842;DHT22;1936;47.074;15.336;2023-08-01T08:50:03;26.40;70.60
3842;DHT22;1936;47.074;15.336;2023-08-01T08:52:07;26.60;72.20
3842;DHT22;1936;47.074;15.336;2023-08-01T08:54:11;26.70;69.90
3842;DHT22;1936;47.074;15.336;2023-08-01T08:56:15;26.80;68.80
3842;DHT22;1936;47.074;15.336;2023-08-01T08:58:19;27.70;68.10
3842;DHT22;1936;47.074;15.336;2023-08-01T09:00:23;28.00;68.80
3842;DHT22;1936;47.074;15.336;2023-08-01T09:02:27;27.90;67.80
3842;DHT22;1936;47.074;15.336;2023-08-01T09:04:32;28.20;66.50
3842;DHT22;1936;47.074;15.336;2023-08-01T09:06:41;28.30;66.30
3842;DHT22;1936;47.074;15.336;2023-08-01T09:08:56;28.60;67.30
3842;DHT22;1936;47.074;15.336;2023-08-01T09:11:03;28.70;65.70
3842;DHT22;1936;47.074;15.336;2023-08-01T09:13:07;28.70;62.50
3842;DHT22;1936;47.074;15.336;2023-08-01T09:15:12;28.90;64.90
3842;DHT22;1936;47.074;15.336;2023-08-01T09:17:16;28.90;63.30
3842;DHT22;1936;47.074;15.336;2023-08-01T09:19:23;29.50;63.70
3842;DHT22;1936;47.074;15.336;2023-08-01T09:21:31;30.10;62.20
3842;DHT22;1936;47.074;15.336;2023-08-01T09:23:36;30.90;61.40
3842;DHT22;1936;47.074;15.336;2023-08-01T09:25:40;31.20;57.30
3842;DHT22;1936;47.074;15.336;2023-08-01T09:27:44;30.70;55.70
3842;DHT22;1936;47.074;15.336;2023-08-01T09:29:47;30.30;56.00
3842;DHT22;1936;47.074;15.336;2023-08-01T09:31:51;30.60;56.50
3842;DHT22;1936;47.074;15.336;2023-08-01T09:33:54;30.00;57.20
3842;DHT22;1936;47.074;15.336;2023-08-01T09:35:57;29.30;57.60
3842;DHT22;1936;47.074;15.336;2023-08-01T09:38:02;29.30;59.30
3842;DHT22;1936;47.074;15.336;2023-08-01T09:40:07;29.30;59.70
3842;DHT22;1936;47.074;15.336;2023-08-01T09:42:10;29.50;60.50
3842;DHT22;1936;47.074;15.336;2023-08-01T09:44:15;29.40;60.00
3842;DHT22;1936;47.074;15.336;2023-08-01T09:46:19;29.30;62.50
3842;DHT22;1936;47.074;15.336;2023-08-01T09:48:23;29.10;61.20
3842;DHT22;1936;47.074;15.336;2023-08-01T09:50:28;29.10;63.30
3842;DHT22;1936;47.074;15.336;2023-08-01T09:52:32;29.00;62.30
3842;DHT22;1936;47.074;15.336;2023-08-01T09:54:37;28.90;61.70
3842;DHT22;1936;47.074;15.336;2023-08-01T09:56:44;28.30;64.20
3842;DHT22;1936;47.074;15.336;2023-08-01T09:58:49;28.30;65.00
3842;DHT22;1936;47.074;15.336;2023-08-01T10:00:52;28.40;66.70
3842;DHT22;1936;47.074;15.336;2023-08-01T10:02:57;28.20;65.30
3842;DHT22;1936;47.074;15.336;2023-08-01T10:05:03;28.10;64.20
3842;DHT22;1936;47.074;15.336;2023-08-01T10:07:11;27.60;65.60
3842;DHT22;1936;47.074;15.336;2023-08-01T10:09:16;26.90;69.60
3842;DHT22;1936;47.074;15.336;2023-08-01T10:11:23;26.70;68.10
3842;DHT22;1936;47.074;15.336;2023-08-01T10:13:27;26.60;69.40
3842;DHT22;1936;47.074;15.336;2023-08-01T10:15:31;26.60;68.50
3842;DHT22;1936;47.074;15.336;2023-08-01T10:17:35;26.40;67.60
3842;DHT22;1936;47.074;15.336;2023-08-01T10:19:38;26.50;70.20
3842;DHT22;1936;47.074;15.336;2023-08-01T10:21:43;26.60;69.50
3842;DHT22;1936;47.074;15.336;2023-08-01T10:23:48;26.70;68.50
3842;DHT22;1936;47.074;15.336;2023-08-01T10:25:51;26.70;70.70
3842;DHT22;1936;47.074;15.336;2023-08-01T10:28:00;26.30;71.30
3842;DHT22;1936;47.074;15.336;2023-08-01T10:30:04;26.00;72.60
3842;DHT22;1936;47.074;15.336;2023-08-01T10:32:10;26.00;73.80
3842;DHT22;1936;47.074;15.336;2023-08-01T10:34:13;25.80;74.50
3842;DHT22;1936;47.074;15.336;2023-08-01T10:36:18;25.60;77.20
3842;DHT22;1936;47.074;15.336;2023-08-01T10:38:21;25.80;77.80
3842;DHT22;1936;47.074;15.336;2023-08-01T10:40:33;25.50;79.60
3842;DHT22;1936;47.074;15.336;2023-08-01T10:42:38;25.00;81.20
3842;DHT22;1936;47.074;15.336;2023-08-01T10:44:46;24.70;83.50
3842;DHT22;1936;47.074;15.336;2023-08-01T10:46:51;24.80;84.60
3842;DHT22;1936;47.074;15.336;2023-08-01T10:48:54;24.50;85.70
3842;DHT22;1936;47.074;15.336;2023-08-01T10:50:58;24.80;86.20
3842;DHT22;1936;47.074;15.336;2023-08-01T10:53:03;24.70;85.10
3842;DHT22;1936;47.074;15.336;2023-08-01T10:55:07;24.20;87.70
3842;DHT22;1936;47.074;15.336;2023-08-01T10:57:16;24.00;89.50
3842;DHT22;1936;47.074;15.336;2023-08-01T10:59:20;24.10;90.10
3842;DHT22;1936;47.074;15.336;2023-08-01T11:01:26;24.30;90.00
3842;DHT22;1936;47.074;15.336;2023-08-01T11:03:36;24.60;89.30
3842;DHT22;1936;47.074;15.336;2023-08-01T11:05:40;24.70;88.90
3842;DHT22;1936;47.074;15.336;2023-08-01T11:07:53;24.80;89.20
3842;DHT22;1936;47.074;15.336;2023-08-01T11:10:04;24.90;89.00
3842;DHT22;1936;47.074;15.336;2023-08-01T11:12:08;25.10;88.90
3842;DHT22;1936;47.074;15.336;2023-08-01T11:14:12;25.20;88.00
3842;DHT22;1936;47.074;15.336;2023-08-01T11:16:17;25.20;87.70
3842;DHT22;1936;47.074;15.336;2023-08-01T11:18:22;25.10;87.10
3842;DHT22;1936;47.074;15.336;2023-08-01T11:20:25;24.20;88.90
3842;DHT22;1936;47.074;15.336;2023-08-01T11:22:30;24.40;90.60
3842;DHT22;1936;47.074;15.336;2023-08-01T11:24:33;24.70;89.80
3842;DHT22;1936;47.074;15.336;2023-08-01T11:26:40;24.80;89.80
3842;DHT22;1936;47.074;15.336;2023-08-01T11:28:44;25.20;89.80
3842;DHT22;1936;47.074;15.336;2023-08-01T11:30:49;25.40;89.00
3842;DHT22;1936;47.074;15.336;2023-08-01T11:32:53;25.00;89.60
3842;DHT22;1936;47.074;15.336;2023-08-01T11:34:58;25.30;88.40
3842;DHT22;1936;47.074;15.336;2023-08-01T11:37:01;25.40;85.00
3842;DHT22;1936;47.074;15.336;2023-08-01T11:39:05;25.30;84.40
3842;DHT22;1936;47.074;15.336;2023-08-01T11:41:08;25.70;84.80
3842;DHT22;1936;47.074;15.336;2023-08-01T11:43:12;25.70;83.10
3842;DHT22;1936;47.074;15.336;2023-08-01T11:45:16;25.80;81.20
3842;DHT22;1936;47.074;15.336;2023-08-01T11:47:20;26.00;82.40
3842;DHT22;1936;47.074;15.336;2023-08-01T11:49:23;26.10;82.00
3842;DHT22;1936;47.074;15.336;2023-08-01T11:51:29;26.20;82.80
3842;DHT22;1936;47.074;15.336;2023-08-01T11:53:33;26.40;81.70
3842;DHT22;1936;47.074;15.336;2023-08-01T11:55:41;26.40;80.90
3842;DHT22;1936;47.074;15.336;2023-08-01T11:57:52;26.40;81.10
3842;DHT22;1936;47.074;15.336;2023-08-01T11:59:56;26.50;80.90
3842;DHT22;1936;47.074;15.336;2023-08-01T12:01:59;26.60;81.60
3842;DHT22;1936;47.074;15.336;2023-08-01T12:04:03;26.50;81.30
3842;DHT22;1936;47.074;15.336;2023-08-01T12:06:06;26.40;81.40
3842;DHT22;1936;47.074;15.336;2023-08-01T12:08:13;26.10;82.60
3842;DHT22;1936;47.074;15.336;2023-08-01T12:10:17;26.10;82.60
3842;DHT22;1936;47.074;15.336;2023-08-01T12:12:20;25.80;83.40
3842;DHT22;1936;47.074;15.336;2023-08-01T12:14:23;25.50;84.70
3842;DHT22;1936;47.074;15.336;2023-08-01T12:16:27;25.40;85.40
3842;DHT22;1936;47.074;15.336;2023-08-01T12:18:30;25.20;86.00
3842;DHT22;1936;47.074;15.336;2023-08-01T12:20:37;25.10;86.70
3842;DHT22;1936;47.074;15.336;2023-08-01T12:22:40;24.90;87.10
3842;DHT22;1936;47.074;15.336;2023-08-01T12:24:45;24.80;88.00
3842;DHT22;1936;47.074;15.336;2023-08-01T12:26:49;24.70;88.50
3842;DHT22;1936;47.074;15.336;2023-08-01T12:28:53;24.60;89.10
3842;DHT22;1936;47.074;15.336;2023-08-01T12:30:56;24.50;89.80
3842;DHT22;1936;47.074;15.336;2023-08-01T12:33:01;24.20;90.20
3842;DHT22;1936;47.074;15.336;2023-08-01T12:35:05;23.90;90.80
3842;DHT22;1936;47.074;15.336;2023-08-01T12:37:08;22.70;92.10
3842;DHT22;1936;47.074;15.336;2023-08-01T12:39:11;21.10;93.30
3842;DHT22;1936;47.074;15.336;2023-08-01T12:41:16;20.20;94.60
3842;DHT22;1936;47.074;15.336;2023-08-01T12:43:19;19.70;96.50
3842;DHT22;1936;47.074;15.336;2023-08-01T12:45:23;19.20;97.40
3842;DHT22;1936;47.074;15.336;2023-08-01T12:47:26;19.20;97.90
3842;DHT22;1936;47.074;15.336;2023-08-01T12:49:30;19.00;96.50
3842;DHT22;1936;47.074;15.336;2023-08-01T12:51:33;18.70;97.60
3842;DHT22;1936;47.074;15.336;2023-08-01T12:53:37;18.80;97.60
3842;DHT22;1936;47.074;15.336;2023-08-01T12:55:43;18.70;96.40
3842;DHT22;1936;47.074;15.336;2023-08-01T12:57:48;18.80;96.60
3842;DHT22;1936;47.074;15.336;2023-08-01T12:59:51;18.60;95.90
3842;DHT22;1936;47.074;15.336;2023-08-01T13:01:55;18.30;96.50
3842;DHT22;1936;47.074;15.336;2023-08-01T13:03:58;17.90;97.50
3842;DHT22;1936;47.074;15.336;2023-08-01T13:06:01;17.40;99.10
3842;DHT22;1936;47.074;15.336;2023-08-01T13:08:06;17.20;99.80
3842;DHT22;1936;47.074;15.336;2023-08-01T13:10:09;17.30;99.80
3842;DHT22;1936;47.074;15.336;2023-08-01T13:12:12;17.30;99.50
3842;DHT22;1936;47.074;15.336;2023-08-01T13:14:17;17.30;99.40
3842;DHT22;1936;47.074;15.336;2023-08-01T13:16:23;17.30;99.60